createdAt,value
2022-09-09T00:03:16.707Z,100030.60
2022-09-09T00:20:14.040Z,100014.61
2022-09-09T00:37:02.288Z,99998.76
2022-09-09T00:54:12.113Z,99996.67
2022-09-09T01:11:01.503Z,99994.85
2022-09-09T01:27:53.300Z,99994.59
2022-09-09T01:44:42.469Z,99982.23
2022-09-09T02:01:43.941Z,99984.10
2022-09-09T02:18:37.756Z,99981.70
2022-09-09T02:35:29.671Z,99976.12
2022-09-09T02:52:21.264Z,99974.90
2022-09-09T03:09:11.665Z,99988.94
2022-09-09T03:25:59.933Z,99980.08
2022-09-09T03:42:47.874Z,99973.13
2022-09-09T03:59:36.346Z,99976.25
2022-09-09T04:16:24.417Z,99981.25
2022-09-09T04:33:13.113Z,99978.55
2022-09-09T04:50:01.859Z,99977.29
2022-09-09T05:06:49.724Z,99992.98
2022-09-09T05:23:38.112Z,99999.31
2022-09-09T05:40:26.267Z,100002.18
2022-09-09T05:57:14.474Z,99998.09
2022-09-09T06:14:03.097Z,100006.95
2022-09-09T06:30:59.815Z,100020.14
2022-09-09T06:47:47.762Z,100026.08
2022-09-09T07:04:35.850Z,100038.61
2022-09-09T07:21:24.298Z,100046.70
2022-09-09T07:38:12.400Z,100057.68
2022-09-09T07:55:01.667Z,100066.15
2022-09-09T08:11:50.832Z,100073.67
2022-09-09T08:28:38.901Z,100097.55
2022-09-09T08:45:36.969Z,100108.13
2022-09-09T09:02:35.700Z,100110.38
2022-09-09T09:19:27.387Z,100114.80
2022-09-09T09:36:59.011Z,100137.52
2022-09-09T09:53:54.094Z,100140.27
2022-09-09T10:11:06.020Z,100140.45
2022-09-09T10:28:20.655Z,100146.67
2022-09-09T10:45:20.095Z,100172.61
2022-09-09T11:02:20.940Z,100197.77
2022-09-09T11:19:23.154Z,100206.67
2022-09-09T11:36:28.259Z,100220.27
2022-09-09T11:53:27.782Z,100217.77
2022-09-09T12:10:30.980Z,100223.03
2022-09-09T12:27:27.264Z,100226.05
2022-09-09T12:44:16.535Z,100230.64
2022-09-09T13:01:07.531Z,100219.84
2022-09-09T13:18:02.033Z,100217.08
2022-09-09T13:34:59.238Z,100213.81
2022-09-09T13:51:51.872Z,100208.29
2022-09-09T14:08:42.329Z,100215.35
2022-09-09T14:25:31.052Z,100225.16
2022-09-09T14:42:19.110Z,100233.08
2022-09-09T14:59:07.717Z,100225.27
2022-09-09T15:15:56.870Z,100240.14
2022-09-09T15:32:46.153Z,100231.04
2022-09-09T15:49:35.193Z,100242.05
2022-09-09T16:06:26.821Z,100240.85
2022-09-09T16:23:15.336Z,100235.20
2022-09-09T16:40:04.693Z,100231.84
2022-09-09T16:56:55.107Z,100232.29
2022-09-09T17:13:47.872Z,100237.06
2022-09-09T17:30:38.686Z,100247.96
2022-09-09T17:47:27.714Z,100263.56
2022-09-09T18:04:18.413Z,100269.91
2022-09-09T18:21:08.673Z,100285.73
2022-09-09T18:37:58.782Z,100297.37
2022-09-09T18:54:48.610Z,100303.02
2022-09-09T19:11:38.767Z,100303.13
2022-09-09T19:28:27.869Z,100304.91
2022-09-09T19:45:16.585Z,100305.65
2022-09-09T20:02:07.433Z,100300.85
2022-09-09T20:18:57.719Z,100297.27
2022-09-09T20:35:46.804Z,100298.66
2022-09-09T20:52:35.857Z,100302.98
2022-09-09T21:09:24.882Z,100310.20
2022-09-09T21:26:13.773Z,100316.11
2022-09-09T21:43:04.599Z,100320.61
2022-09-09T21:59:54.357Z,100316.08
2022-09-09T22:16:42.424Z,100315.70
2022-09-09T22:33:30.944Z,100314.89
2022-09-09T22:50:22.169Z,100308.10
2022-09-09T23:07:12.055Z,100303.65
2022-09-09T23:24:03.344Z,100292.84
2022-09-09T23:40:52.136Z,100284.69
2022-09-09T23:57:40.528Z,100277.47
